| time (UTC) | temp C | wind direction | speed KPH | gust KPH | rain 1hr cm | rain 24hr cm | rain mn cm | humidity % | barometer mb |
| 20260504215015 | 24 | 180 | 4.8 | 22.5 | 0.00 | 0.00 | 0.00 | 35 | 1009.6 |
| 20260504214516 | 24 | 275 | 6.4 | 24.1 | 0.00 | 0.00 | 0.00 | 36 | 1009.7 |
| 20260504214015 | 24 | 227 | 4.8 | 24.1 | 0.00 | 0.00 | 0.00 | 35 | 1009.6 |
| 20260504213515 | 24 | 223 | 9.7 | 14.5 | 0.00 | 0.00 | 0.00 | 35 | 1009.5 |
| 20260504213015 | 24 | 132 | 3.2 | 14.5 | 0.00 | 0.00 | 0.00 | 35 | 1009.5 |
| 20260504212515 | 24 | 157 | 3.2 | 16.1 | 0.00 | 0.00 | 0.00 | 35 | 1009.5 |
| 20260504212016 | 24 | 220 | 3.2 | 29.0 | 0.00 | 0.00 | 0.00 | 34 | 1009.5 |
| 20260504211514 | 24 | 206 | 9.7 | 19.3 | 0.00 | 0.00 | 0.00 | 35 | 1009.6 |
| 20260504211014 | 24 | 240 | 1.6 | 11.3 | 0.00 | 0.00 | 0.00 | 35 | 1009.4 |
| 20260504210514 | 24 | 166 | 6.4 | 9.7 | 0.00 | 0.00 | 0.00 | 34 | 1009.5 |
| 20260504210018 | 24 | 170 | 1.6 | 20.9 | 0.00 | 0.00 | 0.00 | 34 | 1009.5 |
| 20260504205514 | 25 | 209 | 6.4 | 20.9 | 0.00 | 0.00 | 0.00 | 33 | 1009.4 |
| 20260504205013 | 24 | 227 | 8.0 | 19.3 | 0.00 | 0.00 | 0.00 | 33 | 1009.5 |
| 20260504204512 | 24 | 139 | 3.2 | 17.7 | 0.00 | 0.00 | 0.00 | 33 | 1009.5 |
| 20260504204012 | 24 | 180 | 4.8 | 17.7 | 0.00 | 0.00 | 0.00 | 33 | 1009.6 |
| 20260504203513 | 25 | 219 | 4.8 | 14.5 | 0.00 | 0.00 | 0.00 | 34 | 1009.7 |
| 20260504203010 | 25 | 191 | 3.2 | 12.9 | 0.00 | 0.00 | 0.00 | 34 | 1009.7 |
| 20260504202510 | 25 | 234 | 4.8 | 12.9 | 0.00 | 0.00 | 0.00 | 33 | 1009.9 |
| 20260504202008 | 24 | 202 | 1.6 | 17.7 | 0.00 | 0.00 | 0.00 | 35 | 1010.0 |
| 20260504201507 | 24 | 248 | 3.2 | 14.5 | 0.00 | 0.00 | 0.00 | 34 | 1009.9 |
| 20260504201007 | 24 | 162 | 6.4 | 14.5 | 0.00 | 0.00 | 0.00 | 33 | 1010.0 |
| 20260504200506 | 24 | 191 | 4.8 | 17.7 | 0.00 | 0.00 | 0.00 | 33 | 1010.1 |
| 20260504200004 | 24 | 216 | 1.6 | 19.3 | 0.00 | 0.00 | 0.00 | 35 | 1010.3 |
| 20260504195504 | 25 | 272 | 11.3 | 19.3 | 0.00 | 0.00 | 0.00 | 33 | 1010.3 |
| 20260504195001 | 24 | 205 | 1.6 | 24.1 | 0.00 | 0.00 | 0.00 | 34 | 1010.3 |
| 20260504194606 | 24 | 240 | 6.4 | 24.1 | 0.00 | 0.00 | 0.00 | 33 | 1010.5 |
| 20260504194059 | 24 | 229 | 9.7 | 20.9 | 0.00 | 0.00 | 0.00 | 34 | 1010.6 |
| 20260504193601 | 24 | 262 | 9.7 | 20.9 | 0.00 | 0.00 | 0.00 | 35 | 1010.5 |
| 20260504193100 | 24 | 229 | 4.8 | 16.1 | 0.00 | 0.00 | 0.00 | 34 | 1010.6 |
| 20260504192556 | 24 | 251 | 1.6 | 17.7 | 0.00 | 0.00 | 0.00 | 36 | 1010.6 |
| 20260504192055 | 24 | 232 | 6.4 | 17.7 | 0.00 | 0.00 | 0.00 | 34 | 1010.8 |
| 20260504191611 | 24 | 248 | 4.8 | 17.7 | 0.00 | 0.00 | 0.00 | 33 | 1010.9 |
| 20260504191054 | 23 | 231 | 3.2 | 16.1 | 0.00 | 0.00 | 0.00 | 33 | 1011.0 |
| 20260504190556 | 24 | 256 | 6.4 | 17.7 | 0.00 | 0.00 | 0.00 | 34 | 1011.1 |
| 20260504190053 | 23 | 225 | 4.8 | 16.1 | 0.00 | 0.00 | 0.00 | 36 | 1011.2 |
| 20260504185552 | 23 | 184 | 4.8 | 11.3 | 0.00 | 0.00 | 0.00 | 35 | 1011.3 |
| 20260504185052 | 23 | 150 | 1.6 | 12.9 | 0.00 | 0.00 | 0.00 | 35 | 1011.4 |
| 20260504184550 | 24 | 182 | 1.6 | 16.1 | 0.00 | 0.00 | 0.00 | 33 | 1011.5 |
| 20260504184049 | 24 | 145 | 8.0 | 16.1 | 0.00 | 0.00 | 0.00 | 34 | 1011.6 |
| 20260504183548 | 24 | 257 | 4.8 | 12.9 | 0.00 | 0.00 | 0.00 | 35 | 1011.7 |
| 20260504183046 | 23 | 237 | 1.6 | 14.5 | 0.00 | 0.00 | 0.00 | 36 | 1011.7 |
| 20260504182548 | 23 | 240 | 3.2 | 14.5 | 0.00 | 0.00 | 0.00 | 34 | 1011.7 |
| 20260504182046 | 23 | 196 | 0.0 | 22.5 | 0.00 | 0.00 | 0.00 | 35 | 1011.8 |
| 20260504181550 | 23 | 292 | 4.8 | 22.5 | 0.00 | 0.00 | 0.00 | 36 | 1012.0 |
| 20260504181044 | 23 | 297 | 8.0 | 17.7 | 0.00 | 0.00 | 0.00 | 35 | 1012.1 |
| 20260504180543 | 23 | 236 | 4.8 | 19.3 | 0.00 | 0.00 | 0.00 | 36 | 1012.2 |
| 20260504180043 | 23 | 269 | 9.7 | 20.9 | 0.00 | 0.00 | 0.00 | 36 | 1012.3 |
| 20260504175543 | 23 | 160 | 4.8 | 12.9 | 0.00 | 0.00 | 0.00 | 35 | 1012.4 |
| 20260504175041 | 23 | 260 | 3.2 | 17.7 | 0.00 | 0.00 | 0.00 | 38 | 1012.4 |
| 20260504174540 | 23 | 223 | 6.4 | 17.7 | 0.00 | 0.00 | 0.00 | 36 | 1012.6 |
| 20260504174039 | 23 | 246 | 3.2 | 12.9 | 0.00 | 0.00 | 0.00 | 39 | 1012.5 |
| 20260504173538 | 22 | 223 | 4.8 | 25.7 | 0.00 | 0.00 | 0.00 | 38 | 1012.6 |
| 20260504173038 | 22 | 223 | 8.0 | 25.7 | 0.00 | 0.00 | 0.00 | 35 | 1012.8 |
| 20260504172541 | 22 | 246 | 6.4 | 12.9 | 0.00 | 0.00 | 0.00 | 36 | 1012.9 |
| 20260504172037 | 22 | 235 | 1.6 | 12.9 | 0.00 | 0.00 | 0.00 | 36 | 1012.8 |
| 20260504171545 | 22 | 262 | 3.2 | 14.5 | 0.00 | 0.00 | 0.00 | 36 | 1012.8 |
| 20260504171035 | 22 | 260 | 4.8 | 17.7 | 0.00 | 0.00 | 0.00 | 37 | 1013.0 |
| 20260504170535 | 22 | 248 | 8.0 | 17.7 | 0.00 | 0.00 | 0.00 | 35 | 1013.2 |
| 20260504151016 | 20 | 157 | 4.8 | 16.1 | 0.00 | 0.00 | 0.00 | 36 | 1014.5 |
| 20260504150516 | 20 | 253 | 3.2 | 11.3 | 0.00 | 0.00 | 0.00 | 40 | 1014.5 |
| 20260504141003 | 18 | 211 | 1.6 | 11.3 | 0.00 | 0.00 | 0.00 | 42 | 1014.6 |
| 20260504140503 | 18 | 209 | 4.8 | 11.3 | 0.00 | 0.00 | 0.00 | 42 | 1014.6 |
| 20260504130545 | 13 | 253 | 3.2 | 8.0 | 0.00 | 0.00 | 0.00 | 54 | 1015.0 |
| 20260504110526 | 9 | 247 | 0.0 | 1.6 | 0.00 | 0.00 | 0.00 | 66 | 1015.5 |
| 20260504100520 | 9 | 247 | 0.0 | 0.0 | 0.00 | 0.00 | 0.00 | 63 | 1015.3 |
| 20260504081515 | 10 | 247 | 0.0 | 1.6 | 0.00 | 0.00 | 0.00 | 59 | 1015.8 |
| 20260504081017 | 10 | 247 | 0.0 | 1.6 | 0.00 | 0.00 | 0.00 | 59 | 1015.8 |
| 20260504080515 | 10 | 247 | 0.0 | 3.2 | 0.00 | 0.00 | 0.00 | 59 | 1015.7 |
| 20260504050600 | 10 | 247 | 0.0 | 0.0 | 0.00 | 0.00 | 0.00 | 52 | 1016.4 |
| 20260504045602 | 10 | 247 | 0.0 | 0.0 | 0.00 | 0.00 | 0.00 | 51 | 1016.3 |
| 20260504045059 | 10 | 247 | 0.0 | 0.0 | 0.00 | 0.00 | 0.00 | 50 | 1016.3 |
| 20260504044619 | 10 | 247 | 0.0 | 0.0 | 0.00 | 0.00 | 0.00 | 51 | 1016.4 |
| 20260504044057 | 10 | 247 | 0.0 | 0.0 | 0.00 | 0.00 | 0.00 | 50 | 1016.3 |
| 20260504043556 | 10 | 247 | 0.0 | 0.0 | 0.00 | 0.00 | 0.00 | 50 | 1016.3 |
| 20260504043056 | 10 | 247 | 0.0 | 0.0 | 0.00 | 0.00 | 0.00 | 50 | 1016.3 |
| 20260504042556 | 10 | 247 | 0.0 | 0.0 | 0.00 | 0.00 | 0.00 | 50 | 1016.2 |
| 20260504042054 | 10 | 247 | 0.0 | 1.6 | 0.00 | 0.00 | 0.00 | 49 | 1016.2 |
| 20260504041554 | 10 | 247 | 0.0 | 1.6 | 0.00 | 0.00 | 0.00 | 48 | 1016.2 |
| 20260504041054 | 11 | 247 | 0.0 | 0.0 | 0.00 | 0.00 | 0.00 | 48 | 1016.2 |
| 20260504040554 | 11 | 247 | 0.0 | 0.0 | 0.00 | 0.00 | 0.00 | 48 | 1016.2 |
| 20260504040109 | 11 | 247 | 0.0 | 0.0 | 0.00 | 0.00 | 0.00 | 48 | 1016.1 |
| 20260504035557 | 10 | 247 | 0.0 | 3.2 | 0.00 | 0.00 | 0.00 | 48 | 1016.2 |
| 20260504035052 | 10 | 247 | 0.0 | 3.2 | 0.00 | 0.00 | 0.00 | 48 | 1016.2 |
| 20260504034555 | 10 | 247 | 0.0 | 1.6 | 0.00 | 0.00 | 0.00 | 48 | 1016.3 |
| 20260504034051 | 10 | 247 | 0.0 | 1.6 | 0.00 | 0.00 | 0.00 | 48 | 1016.3 |
| 20260504033553 | 10 | 247 | 0.0 | 1.6 | 0.00 | 0.00 | 0.00 | 48 | 1016.3 |
| 20260504033053 | 10 | 247 | 0.0 | 0.0 | 0.00 | 0.00 | 0.00 | 48 | 1016.3 |
| 20260504032551 | 10 | 247 | 0.0 | 3.2 | 0.00 | 0.00 | 0.00 | 49 | 1016.2 |
| 20260504032051 | 10 | 247 | 0.0 | 3.2 | 0.00 | 0.00 | 0.00 | 49 | 1016.2 |
| 20260504031551 | 10 | 247 | 0.0 | 1.6 | 0.00 | 0.00 | 0.00 | 50 | 1016.1 |
| 20260504031050 | 10 | 247 | 0.0 | 1.6 | 0.00 | 0.00 | 0.00 | 50 | 1016.0 |
| 20260504030550 | 10 | 247 | 0.0 | 1.6 | 0.00 | 0.00 | 0.00 | 51 | 1016.1 |
| 20260504030050 | 10 | 247 | 0.0 | 1.6 | 0.00 | 0.00 | 0.00 | 53 | 1016.1 |
| 20260504025552 | 10 | 247 | 0.0 | 1.6 | 0.00 | 0.00 | 0.00 | 53 | 1016.1 |
| 20260504025050 | 10 | 247 | 0.0 | 3.2 | 0.00 | 0.00 | 0.00 | 54 | 1016.0 |
| 20260504024550 | 10 | 247 | 0.0 | 1.6 | 0.00 | 0.00 | 0.00 | 55 | 1015.9 |
| 20260504024049 | 10 | 247 | 0.0 | 1.6 | 0.00 | 0.00 | 0.00 | 57 | 1015.9 |
| 20260504023549 | 10 | 247 | 0.0 | 0.0 | 0.00 | 0.00 | 0.00 | 58 | 1015.8 |
| 20260504023049 | 10 | 247 | 0.0 | 0.0 | 0.00 | 0.00 | 0.00 | 58 | 1015.8 |
| 20260504022550 | 10 | 247 | 0.0 | 0.0 | 0.00 | 0.00 | 0.00 | 59 | 1015.8 |
| 20260504022048 | 10 | 247 | 0.0 | 0.0 | 0.00 | 0.00 | 0.00 | 58 | 1015.8 |
| 20260504021550 | 10 | 247 | 0.0 | 0.0 | 0.00 | 0.00 | 0.00 | 57 | 1015.7 |
| 20260504021051 | 10 | 247 | 0.0 | 0.0 | 0.00 | 0.00 | 0.00 | 57 | 1015.7 |
| 20260504020551 | 10 | 247 | 0.0 | 0.0 | 0.00 | 0.00 | 0.00 | 56 | 1015.7 |
| 20260504020048 | 10 | 247 | 0.0 | 0.0 | 0.00 | 0.00 | 0.00 | 54 | 1015.6 |
| 20260504015548 | 10 | 247 | 0.0 | 0.0 | 0.00 | 0.00 | 0.00 | 54 | 1015.6 |
| 20260504015048 | 11 | 247 | 0.0 | 0.0 | 0.00 | 0.00 | 0.00 | 53 | 1015.5 |
| 20260504014548 | 11 | 247 | 0.0 | 0.0 | 0.00 | 0.00 | 0.00 | 51 | 1015.5 |
| 20260504014047 | 11 | 247 | 0.0 | 0.0 | 0.00 | 0.00 | 0.00 | 50 | 1015.5 |
| 20260504013547 | 11 | 247 | 0.0 | 0.0 | 0.00 | 0.00 | 0.00 | 51 | 1015.4 |
| 20260504013056 | 11 | 247 | 0.0 | 0.0 | 0.00 | 0.00 | 0.00 | 51 | 1015.3 |
| 20260504012547 | 11 | 247 | 0.0 | 0.0 | 0.00 | 0.00 | 0.00 | 49 | 1015.4 |
| 20260504012047 | 11 | 247 | 0.0 | 0.0 | 0.00 | 0.00 | 0.00 | 49 | 1015.3 |
| 20260504011547 | 11 | 247 | 0.0 | 0.0 | 0.00 | 0.00 | 0.00 | 49 | 1015.4 |
| 20260504011047 | 11 | 247 | 0.0 | 1.6 | 0.00 | 0.00 | 0.00 | 48 | 1015.4 |
| 20260504010546 | 12 | 247 | 0.0 | 1.6 | 0.00 | 0.00 | 0.00 | 47 | 1015.3 |
| 20260504010056 | 12 | 247 | 0.0 | 0.0 | 0.00 | 0.00 | 0.00 | 44 | 1015.3 |
| 20260504005546 | 12 | 247 | 0.0 | 0.0 | 0.00 | 0.00 | 0.00 | 43 | 1015.3 |
| 20260504005046 | 13 | 247 | 0.0 | 0.0 | 0.00 | 0.00 | 0.00 | 41 | 1015.3 |
| 20260504004552 | 13 | 247 | 0.0 | 0.0 | 0.00 | 0.00 | 0.00 | 40 | 1015.1 |
| 20260504004048 | 13 | 247 | 0.0 | 0.0 | 0.00 | 0.00 | 0.00 | 38 | 1015.1 |
| 20260504003544 | 13 | 247 | 0.0 | 0.0 | 0.00 | 0.00 | 0.00 | 38 | 1015.1 |
| 20260504003046 | 13 | 247 | 0.0 | 0.0 | 0.00 | 0.00 | 0.00 | 38 | 1015.1 |
| 20260504002544 | 14 | 247 | 0.0 | 0.0 | 0.00 | 0.00 | 0.00 | 37 | 1015.1 |
| 20260504002045 | 14 | 247 | 0.0 | 0.0 | 0.00 | 0.00 | 0.00 | 37 | 1015.1 |
| 20260504001546 | 14 | 247 | 0.0 | 1.6 | 0.00 | 0.00 | 0.00 | 36 | 1015.0 |
| 20260504001044 | 15 | 247 | 0.0 | 1.6 | 0.00 | 0.00 | 0.00 | 35 | 1015.0 |
| 20260504000544 | 15 | 247 | 0.0 | 0.0 | 0.00 | 0.00 | 0.00 | 35 | 1014.9 |
| 20260504000044 | 15 | 247 | 0.0 | 4.8 | 0.00 | 0.00 | 0.00 | 35 | 1014.8 |
| 20260503235543 | 15 | 247 | 0.0 | 6.4 | 0.00 | 0.00 | 0.00 | 34 | 1014.8 |
| 20260503235043 | 15 | 307 | 0.0 | 6.4 | 0.00 | 0.00 | 0.00 | 34 | 1014.8 |
| 20260503234543 | 15 | 252 | 0.0 | 1.6 | 0.00 | 0.00 | 0.00 | 34 | 1014.8 |
| 20260503234043 | 15 | 252 | 0.0 | 11.3 | 0.00 | 0.00 | 0.00 | 34 | 1014.7 |
| 20260503233543 | 15 | 252 | 3.2 | 11.3 | 0.00 | 0.00 | 0.00 | 32 | 1014.7 |
| 20260503233046 | 15 | 317 | 1.6 | 12.9 | 0.00 | 0.00 | 0.00 | 33 | 1014.6 |
| 20260503232542 | 16 | 227 | 4.8 | 12.9 | 0.00 | 0.00 | 0.00 | 32 | 1014.7 |
| 20260503232042 | 16 | 248 | 1.6 | 8.0 | 0.00 | 0.00 | 0.00 | 33 | 1014.6 |
| 20260503231542 | 16 | 327 | 1.6 | 12.9 | 0.00 | 0.00 | 0.00 | 34 | 1014.5 |
| 20260503231044 | 16 | 273 | 1.6 | 12.9 | 0.00 | 0.00 | 0.00 | 32 | 1014.5 |
| 20260503230545 | 16 | 234 | 3.2 | 12.9 | 0.00 | 0.00 | 0.00 | 31 | 1014.4 |
| 20260503230041 | 16 | 238 | 0.0 | 11.3 | 0.00 | 0.00 | 0.00 | 33 | 1014.4 |
| 20260503225540 | 16 | 343 | 1.6 | 12.9 | 0.00 | 0.00 | 0.00 | 32 | 1014.5 |
| 20260503225040 | 16 | 245 | 6.4 | 12.9 | 0.00 | 0.00 | 0.00 | 32 | 1014.5 |
| 20260503224540 | 16 | 244 | 1.6 | 16.1 | 0.00 | 0.00 | 0.00 | 31 | 1014.5 |
| 20260503224041 | 16 | 230 | 1.6 | 12.9 | 0.00 | 0.00 | 0.00 | 31 | 1014.5 |
| 20260503223540 | 16 | 236 | 3.2 | 14.5 | 0.00 | 0.00 | 0.00 | 32 | 1014.5 |
| 20260503223040 | 16 | 264 | 3.2 | 14.5 | 0.00 | 0.00 | 0.00 | 31 | 1014.6 |
| 20260503222538 | 16 | 301 | 4.8 | 16.1 | 0.00 | 0.00 | 0.00 | 31 | 1014.6 |
| 20260503222038 | 16 | 260 | 4.8 | 16.1 | 0.00 | 0.00 | 0.00 | 31 | 1014.5 |
| 20260503221538 | 16 | 247 | 4.8 | 20.9 | 0.00 | 0.00 | 0.00 | 31 | 1014.5 |
| 20260503221038 | 16 | 309 | 3.2 | 20.9 | 0.00 | 0.00 | 0.00 | 31 | 1014.6 |
| 20260503220538 | 16 | 242 | 8.0 | 20.9 | 0.00 | 0.00 | 0.00 | 31 | 1014.6 |
| 20260503220038 | 16 | 288 | 3.2 | 16.1 | 0.00 | 0.00 | 0.00 | 30 | 1014.5 |
| 20260503215537 | 16 | 239 | 1.6 | 16.1 | 0.00 | 0.00 | 0.00 | 32 | 1014.6 |